createdAt,value
2018-11-05T00:00:49.487Z,51.50
2018-11-05T00:03:16.600Z,51.50
2018-11-05T00:05:44.260Z,51.50
2018-11-05T00:08:11.355Z,51.50
2018-11-05T00:10:38.455Z,51.50
2018-11-05T00:13:05.572Z,51.50
2018-11-05T00:15:32.710Z,51.50
2018-11-05T00:17:59.818Z,51.50
2018-11-05T00:20:26.940Z,51.50
2018-11-05T00:22:54.023Z,51.60
2018-11-05T00:25:21.134Z,51.50
2018-11-05T00:27:48.219Z,51.50
2018-11-05T00:30:15.383Z,51.50
2018-11-05T00:32:43.115Z,51.50
2018-11-05T00:35:10.464Z,51.50
2018-11-05T00:37:37.564Z,52.20
2018-11-05T00:40:06.967Z,51.50
2018-11-05T00:42:34.068Z,51.60
2018-11-05T00:45:01.171Z,51.60
2018-11-05T00:47:28.264Z,51.60
2018-11-05T00:49:55.357Z,51.60
2018-11-05T00:52:22.428Z,51.60
2018-11-05T00:54:49.534Z,51.60
2018-11-05T00:57:16.636Z,51.60
2018-11-05T00:59:43.730Z,51.60
2018-11-05T01:02:11.195Z,51.60
2018-11-05T01:04:38.272Z,51.60
2018-11-05T01:07:05.370Z,51.60
2018-11-05T01:09:32.467Z,51.60
2018-11-05T01:11:59.560Z,51.60
2018-11-05T01:14:26.662Z,51.60
2018-11-05T01:16:53.731Z,51.60
2018-11-05T01:19:20.843Z,51.60
2018-11-05T01:21:47.955Z,51.60
2018-11-05T01:24:15.047Z,51.60
2018-11-05T01:26:42.122Z,51.70
2018-11-05T01:29:09.197Z,51.60
2018-11-05T01:31:36.254Z,51.60
2018-11-05T01:34:03.327Z,51.60
2018-11-05T01:36:30.438Z,51.60
2018-11-05T01:38:57.546Z,51.60
2018-11-05T01:41:24.672Z,51.60
2018-11-05T01:43:51.766Z,51.60
2018-11-05T01:46:18.854Z,51.60
2018-11-05T01:48:45.932Z,51.60
2018-11-05T01:51:13.271Z,51.70
2018-11-05T01:53:40.545Z,51.70
2018-11-05T01:56:07.655Z,51.70
2018-11-05T01:58:34.747Z,51.60
2018-11-05T02:01:01.859Z,51.60
2018-11-05T02:03:28.959Z,51.70
2018-11-05T02:05:56.042Z,51.70
2018-11-05T02:08:23.161Z,51.70
2018-11-05T02:10:50.252Z,51.70
2018-11-05T02:13:17.369Z,51.70
2018-11-05T02:15:44.466Z,51.70
2018-11-05T02:18:11.592Z,51.70
2018-11-05T02:20:38.678Z,51.70
2018-11-05T02:23:05.791Z,51.70
2018-11-05T02:25:32.876Z,51.80
2018-11-05T02:27:59.955Z,51.80
2018-11-05T02:30:27.220Z,51.80
2018-11-05T02:32:54.323Z,51.80
2018-11-05T02:35:21.417Z,51.80
2018-11-05T02:37:48.986Z,51.80
2018-11-05T02:40:17.351Z,51.80
2018-11-05T02:42:44.792Z,51.80
2018-11-05T02:45:12.996Z,51.80
2018-11-05T02:47:40.107Z,51.80
2018-11-05T02:50:08.687Z,51.80
2018-11-05T02:52:35.954Z,51.70
2018-11-05T02:55:03.308Z,51.80
2018-11-05T02:57:30.406Z,51.80
2018-11-05T02:59:57.507Z,51.80
2018-11-05T03:02:24.690Z,51.80
2018-11-05T03:04:51.911Z,51.70
2018-11-05T03:07:19.167Z,51.80
2018-11-05T03:09:46.272Z,51.70
2018-11-05T03:12:13.370Z,51.70
2018-11-05T03:14:40.490Z,51.70
2018-11-05T03:17:07.601Z,51.70
2018-11-05T03:19:34.690Z,51.70
2018-11-05T03:22:01.798Z,51.70
2018-11-05T03:24:28.902Z,51.70
2018-11-05T03:26:56.011Z,51.70
2018-11-05T03:29:23.112Z,51.60
2018-11-05T03:31:50.197Z,51.60
2018-11-05T03:34:17.300Z,51.60
2018-11-05T03:36:44.401Z,51.70
2018-11-05T03:39:11.942Z,51.70
2018-11-05T03:41:39.167Z,51.70
2018-11-05T03:44:06.631Z,51.70
2018-11-05T03:46:33.891Z,51.70
2018-11-05T03:49:00.970Z,51.70
2018-11-05T03:51:28.056Z,51.70
2018-11-05T03:53:55.138Z,51.70
2018-11-05T03:56:22.323Z,51.80
2018-11-05T03:58:49.345Z,51.70
2018-11-05T04:01:16.469Z,51.80
2018-11-05T04:03:43.568Z,51.80
2018-11-05T04:06:10.664Z,51.80
2018-11-05T04:08:37.743Z,51.80
2018-11-05T04:11:04.879Z,51.90
2018-11-05T04:13:31.970Z,51.90
2018-11-05T04:15:59.148Z,51.90
2018-11-05T04:18:26.208Z,51.90
2018-11-05T04:20:53.296Z,51.90
2018-11-05T04:23:20.371Z,51.90
2018-11-05T04:25:47.492Z,52.00
2018-11-05T04:28:14.589Z,51.90
2018-11-05T04:30:41.702Z,52.00
2018-11-05T04:33:08.818Z,52.00
2018-11-05T04:35:35.920Z,52.00
2018-11-05T04:38:03.039Z,52.00
2018-11-05T04:40:30.144Z,52.00
2018-11-05T04:42:57.251Z,52.00
2018-11-05T04:45:24.373Z,52.00
2018-11-05T04:47:51.491Z,52.00
2018-11-05T04:50:18.604Z,52.00
2018-11-05T04:52:45.690Z,51.90
2018-11-05T04:55:12.747Z,51.90
2018-11-05T04:57:39.853Z,51.90
2018-11-05T05:00:08.870Z,51.90
2018-11-05T05:02:35.963Z,51.90
2018-11-05T05:05:03.062Z,51.90
2018-11-05T05:07:30.147Z,51.90
2018-11-05T05:09:57.244Z,51.90
2018-11-05T05:12:24.362Z,51.90
2018-11-05T05:14:51.496Z,51.90
2018-11-05T05:17:18.597Z,52.50
2018-11-05T05:19:45.691Z,51.80
2018-11-05T05:22:12.810Z,51.80
2018-11-05T05:24:39.935Z,51.80
2018-11-05T05:27:07.040Z,51.80
2018-11-05T05:29:34.204Z,51.80
2018-11-05T05:32:01.301Z,51.80
2018-11-05T05:34:28.406Z,51.80
2018-11-05T05:36:55.507Z,51.80
2018-11-05T05:39:22.590Z,51.80
2018-11-05T05:41:49.688Z,51.80
2018-11-05T05:44:16.798Z,51.80
2018-11-05T05:46:43.936Z,51.80
2018-11-05T05:49:11.038Z,51.80
2018-11-05T05:51:38.163Z,51.80
2018-11-05T05:54:05.275Z,51.80
2018-11-05T05:56:32.357Z,51.80
2018-11-05T05:58:59.467Z,51.80
2018-11-05T06:01:26.588Z,51.80
2018-11-05T06:03:53.688Z,51.80
2018-11-05T06:06:20.937Z,51.80
2018-11-05T06:08:47.918Z,51.80
2018-11-05T06:11:15.018Z,51.80
2018-11-05T06:13:42.132Z,51.80
2018-11-05T06:16:09.219Z,51.80
2018-11-05T06:18:36.314Z,51.90
2018-11-05T06:21:03.410Z,51.80
2018-11-05T06:23:30.503Z,51.80
2018-11-05T06:25:57.597Z,51.80
2018-11-05T06:28:24.697Z,51.90
2018-11-05T06:30:51.787Z,51.90
2018-11-05T06:33:18.891Z,51.80
2018-11-05T06:35:45.987Z,52.50
2018-11-05T06:38:13.078Z,51.80
2018-11-05T06:40:40.200Z,51.80
2018-11-05T06:43:07.285Z,51.80
2018-11-05T06:45:34.469Z,51.80
2018-11-05T06:48:01.528Z,51.80
2018-11-05T06:50:28.637Z,51.80
2018-11-05T06:52:55.756Z,51.80
2018-11-05T06:55:22.878Z,51.80
2018-11-05T06:57:50.091Z,51.80
2018-11-05T07:00:18.629Z,51.80
2018-11-05T07:02:45.760Z,51.80
2018-11-05T07:05:13.452Z,51.80
2018-11-05T07:07:40.551Z,51.80
2018-11-05T07:10:09.015Z,51.80
2018-11-05T07:12:36.163Z,52.40
2018-11-05T07:15:03.716Z,51.80
2018-11-05T07:17:30.810Z,51.80
2018-11-05T07:19:57.870Z,51.80
2018-11-05T07:22:24.955Z,51.80
2018-11-05T07:24:52.047Z,51.80
2018-11-05T07:27:19.439Z,51.80
2018-11-05T07:29:46.531Z,51.80
2018-11-05T07:32:13.608Z,51.80
2018-11-05T07:34:40.691Z,51.80
2018-11-05T07:37:07.783Z,51.80
2018-11-05T07:39:34.879Z,51.80
2018-11-05T07:42:01.966Z,51.80
2018-11-05T07:44:29.055Z,51.70
2018-11-05T07:46:56.151Z,51.70
2018-11-05T07:49:23.262Z,51.70
2018-11-05T07:51:50.330Z,51.70
2018-11-05T07:54:17.437Z,51.70
2018-11-05T07:56:44.570Z,51.70
2018-11-05T07:59:11.651Z,51.70
2018-11-05T08:01:38.751Z,51.70
2018-11-05T08:04:05.835Z,51.70
2018-11-05T08:06:32.931Z,51.70
2018-11-05T08:09:00.034Z,51.70
2018-11-05T08:11:27.139Z,51.70
2018-11-05T08:13:54.247Z,51.70
2018-11-05T08:16:21.345Z,51.70
2018-11-05T08:18:48.428Z,51.70
2018-11-05T08:21:15.511Z,51.70
2018-11-05T08:23:42.610Z,51.70
2018-11-05T08:26:09.683Z,51.70
2018-11-05T08:28:36.790Z,51.70
2018-11-05T08:31:04.514Z,51.70
2018-11-05T08:33:31.624Z,51.80
2018-11-05T08:35:58.691Z,51.70
2018-11-05T08:38:25.771Z,51.70
2018-11-05T08:40:52.895Z,51.70
2018-11-05T08:43:20.005Z,51.70
2018-11-05T08:45:47.115Z,51.70
2018-11-05T08:48:14.228Z,51.70
2018-11-05T08:50:41.423Z,51.80
2018-11-05T08:53:08.443Z,51.70
2018-11-05T08:55:35.543Z,51.80
2018-11-05T08:58:02.643Z,51.80
2018-11-05T09:00:35.366Z,51.80
2018-11-05T09:03:02.432Z,51.80
2018-11-05T09:05:29.590Z,51.70
2018-11-05T09:07:56.750Z,51.80
2018-11-05T09:10:24.087Z,51.80
2018-11-05T09:12:50.940Z,51.70
2018-11-05T09:15:19.278Z,51.70
2018-11-05T09:17:46.595Z,51.70
2018-11-05T09:20:14.723Z,51.70
2018-11-05T09:22:41.791Z,51.70
2018-11-05T09:25:09.864Z,51.70
2018-11-05T09:27:37.045Z,51.70
2018-11-05T09:30:06.420Z,51.70
2018-11-05T09:32:33.519Z,51.70
2018-11-05T09:35:00.624Z,51.70
2018-11-05T09:37:27.715Z,51.60
2018-11-05T09:39:54.794Z,51.60
2018-11-05T09:42:21.888Z,51.60
2018-11-05T09:44:49.110Z,51.60
2018-11-05T09:47:16.205Z,51.60
2018-11-05T09:49:43.412Z,51.60
2018-11-05T09:52:10.395Z,51.60
2018-11-05T09:54:37.506Z,51.60
2018-11-05T09:57:04.781Z,51.60
2018-11-05T09:59:31.847Z,51.60
2018-11-05T10:01:58.932Z,51.60
2018-11-05T10:04:26.091Z,51.60
2018-11-05T10:06:53.149Z,51.60
2018-11-05T10:09:20.244Z,51.60
2018-11-05T10:11:47.348Z,51.60
2018-11-05T10:14:14.436Z,51.60
2018-11-05T10:16:41.513Z,51.70
2018-11-05T10:19:08.583Z,51.70
2018-11-05T10:21:35.701Z,51.70
2018-11-05T10:24:02.786Z,51.70
2018-11-05T10:26:30.161Z,51.70
2018-11-05T10:28:57.253Z,51.70
2018-11-05T10:31:25.675Z,51.70
2018-11-05T10:33:52.750Z,51.70
2018-11-05T10:36:20.300Z,51.70
2018-11-05T10:38:47.399Z,51.70
2018-11-05T10:41:14.718Z,51.70
2018-11-05T10:43:41.815Z,51.70
2018-11-05T10:46:08.920Z,51.70
2018-11-05T10:48:36.002Z,51.70
2018-11-05T10:51:03.124Z,51.70
2018-11-05T10:53:30.207Z,51.70
2018-11-05T10:55:57.301Z,51.70
2018-11-05T10:58:24.387Z,51.70
2018-11-05T11:00:57.106Z,51.70
2018-11-05T11:03:29.004Z,51.70
2018-11-05T11:05:56.083Z,51.70
2018-11-05T11:08:23.167Z,51.60
2018-11-05T11:10:50.292Z,51.70
2018-11-05T11:13:17.359Z,51.70
2018-11-05T11:15:44.476Z,51.60
2018-11-05T11:18:11.554Z,51.60
2018-11-05T11:20:38.650Z,51.60
2018-11-05T11:23:05.762Z,51.60
2018-11-05T11:25:32.885Z,51.60
2018-11-05T11:28:00.202Z,51.60
2018-11-05T11:30:27.059Z,51.60
2018-11-05T11:32:54.149Z,51.60
2018-11-05T11:35:21.245Z,51.60
2018-11-05T11:37:48.347Z,51.60
2018-11-05T11:40:16.982Z,51.60
2018-11-05T11:42:45.069Z,51.60
2018-11-05T11:45:12.878Z,51.60
2018-11-05T11:47:40.003Z,52.20
2018-11-05T11:50:08.562Z,51.60
2018-11-05T11:52:35.749Z,51.60
2018-11-05T11:55:02.991Z,51.60
2018-11-05T11:57:30.095Z,51.60
2018-11-05T11:59:57.186Z,51.60
2018-11-05T12:02:24.282Z,51.60
2018-11-05T12:04:51.475Z,51.60
2018-11-05T12:07:18.469Z,51.60
2018-11-05T12:09:45.567Z,51.60
2018-11-05T12:12:12.675Z,51.60
2018-11-05T12:14:39.917Z,51.60
2018-11-05T12:17:07.230Z,51.60
2018-11-05T12:19:34.342Z,51.60
2018-11-05T12:22:01.627Z,51.60
2018-11-05T12:24:28.890Z,51.60
2018-11-05T12:26:55.951Z,51.70
2018-11-05T12:29:23.140Z,51.60
2018-11-05T12:31:50.261Z,51.60
2018-11-05T12:34:17.360Z,51.60
2018-11-05T12:36:44.551Z,51.70
2018-11-05T12:39:11.663Z,51.60
2018-11-05T12:41:39.163Z,51.70
2018-11-05T12:44:07.234Z,51.70
2018-11-05T12:46:34.311Z,51.70
2018-11-05T12:49:01.422Z,51.70
2018-11-05T12:51:28.502Z,51.70
2018-11-05T12:53:55.603Z,51.70
2018-11-05T12:56:22.752Z,51.70
2018-11-05T12:58:49.839Z,51.70
2018-11-05T13:01:16.921Z,51.70
2018-11-05T13:03:44.012Z,51.70
2018-11-05T13:06:11.111Z,51.70
2018-11-05T13:08:38.259Z,51.70
2018-11-05T13:11:05.436Z,51.70
2018-11-05T13:13:32.515Z,51.70
2018-11-05T13:15:59.627Z,51.70
2018-11-05T13:18:26.731Z,51.70
2018-11-05T13:20:53.842Z,51.70
2018-11-05T13:23:26.615Z,51.70
2018-11-05T13:25:53.740Z,51.70
2018-11-05T13:28:20.881Z,52.30
2018-11-05T13:30:47.943Z,51.80
2018-11-05T13:33:15.046Z,51.70
2018-11-05T13:35:42.156Z,51.70
2018-11-05T13:38:09.790Z,51.70
2018-11-05T13:40:36.440Z,51.60
2018-11-05T13:43:03.834Z,51.70
2018-11-05T13:45:31.154Z,51.70
2018-11-05T13:47:58.820Z,51.60
2018-11-05T13:50:25.486Z,51.70
2018-11-05T13:52:52.383Z,51.60
2018-11-05T13:55:19.506Z,51.70
2018-11-05T13:57:47.620Z,51.60
2018-11-05T14:00:16.063Z,51.70
2018-11-05T14:02:43.158Z,51.70
2018-11-05T14:05:10.786Z,51.70
2018-11-05T14:07:38.225Z,51.70
2018-11-05T14:10:08.785Z,51.70
2018-11-05T14:12:35.874Z,51.70
2018-11-05T14:15:02.986Z,51.80
2018-11-05T14:17:30.056Z,51.70
2018-11-05T14:19:57.152Z,51.70
2018-11-05T14:22:24.300Z,51.70
2018-11-05T14:24:51.466Z,51.70
2018-11-05T14:27:18.679Z,51.70
2018-11-05T14:29:46.104Z,51.70
2018-11-05T14:32:12.824Z,51.70
2018-11-05T14:34:39.891Z,51.70
2018-11-05T14:37:07.049Z,51.80
2018-11-05T14:39:34.092Z,51.80
2018-11-05T14:42:01.200Z,51.70
2018-11-05T14:44:28.312Z,51.80
2018-11-05T14:46:55.446Z,51.80
2018-11-05T14:49:22.555Z,51.80
2018-11-05T14:51:49.650Z,51.90
2018-11-05T14:54:16.715Z,51.90
2018-11-05T14:56:43.804Z,51.80
2018-11-05T14:59:10.917Z,51.90
2018-11-05T15:01:38.035Z,51.90
2018-11-05T15:04:05.127Z,51.80
2018-11-05T15:06:32.235Z,51.80
2018-11-05T15:08:59.331Z,51.90
2018-11-05T15:11:26.430Z,51.90
2018-11-05T15:13:53.539Z,51.90
2018-11-05T15:16:20.622Z,51.90
2018-11-05T15:18:48.072Z,51.90
2018-11-05T15:21:14.930Z,51.80
2018-11-05T15:23:41.959Z,51.80
2018-11-05T15:26:09.218Z,51.80
2018-11-05T15:28:36.224Z,51.80
2018-11-05T15:31:03.352Z,51.80
2018-11-05T15:33:30.500Z,51.90
2018-11-05T15:35:57.582Z,51.90
2018-11-05T15:38:24.663Z,51.80
2018-11-05T15:40:51.732Z,51.80
2018-11-05T15:43:18.808Z,51.90
2018-11-05T15:45:45.879Z,51.80
2018-11-05T15:48:12.988Z,51.80
2018-11-05T15:50:40.695Z,51.80
2018-11-05T15:53:08.014Z,51.90
2018-11-05T15:55:34.901Z,51.80
2018-11-05T15:58:02.028Z,51.90
2018-11-05T16:00:29.127Z,51.80
2018-11-05T16:02:59.359Z,51.90
2018-11-05T16:05:26.448Z,51.90
2018-11-05T16:07:53.522Z,51.80
2018-11-05T16:10:20.749Z,51.80
2018-11-05T16:12:47.986Z,51.90
2018-11-05T16:15:15.068Z,51.90
2018-11-05T16:17:42.138Z,51.80
2018-11-05T16:20:11.856Z,51.90
2018-11-05T16:22:38.935Z,51.90
2018-11-05T16:25:06.046Z,51.90
2018-11-05T16:27:33.215Z,51.90
2018-11-05T16:30:00.282Z,51.90
2018-11-05T16:32:27.345Z,51.90
2018-11-05T16:34:54.952Z,51.90
2018-11-05T16:37:22.019Z,52.00
2018-11-05T16:39:49.141Z,51.90
2018-11-05T16:42:16.236Z,51.90
2018-11-05T16:44:43.343Z,51.90
2018-11-05T16:47:10.433Z,52.50
2018-11-05T16:49:37.674Z,52.00
2018-11-05T16:52:05.287Z,52.00
2018-11-05T16:54:32.368Z,52.00
2018-11-05T16:56:59.455Z,52.00
2018-11-05T16:59:26.534Z,52.00
2018-11-05T17:01:53.989Z,52.00
2018-11-05T17:04:20.706Z,52.00
2018-11-05T17:06:47.774Z,52.10
2018-11-05T17:09:14.839Z,52.00
2018-11-05T17:11:41.923Z,52.00
2018-11-05T17:14:09.011Z,52.00
2018-11-05T17:16:36.111Z,52.00
2018-11-05T17:19:03.248Z,52.10
2018-11-05T17:21:30.286Z,52.00
2018-11-05T17:23:57.392Z,52.00
2018-11-05T17:26:24.542Z,52.10
2018-11-05T17:28:51.606Z,52.00
2018-11-05T17:31:18.732Z,52.10
2018-11-05T17:33:46.054Z,52.10
2018-11-05T17:36:13.062Z,52.10
2018-11-05T17:38:40.138Z,52.10
2018-11-05T17:41:07.265Z,52.10
2018-11-05T17:43:34.346Z,52.10
2018-11-05T17:46:01.468Z,52.10
2018-11-05T17:48:28.555Z,52.10
2018-11-05T17:50:55.764Z,52.10
2018-11-05T17:53:22.738Z,52.10
2018-11-05T17:55:49.831Z,52.10
2018-11-05T17:58:16.913Z,52.10
2018-11-05T18:00:44.028Z,52.10
2018-11-05T18:03:11.109Z,52.10
2018-11-05T18:05:38.199Z,52.10
2018-11-05T18:08:05.262Z,52.10
2018-11-05T18:10:32.336Z,52.10
2018-11-05T18:12:59.415Z,52.70
2018-11-05T18:15:26.522Z,52.10
2018-11-05T18:17:53.695Z,52.10
2018-11-05T18:20:20.789Z,52.10
2018-11-05T18:22:47.878Z,52.10
2018-11-05T18:25:16.131Z,52.10
2018-11-05T18:27:43.404Z,52.10
2018-11-05T18:30:11.344Z,52.10
2018-11-05T18:32:45.144Z,52.10
2018-11-05T18:35:13.010Z,52.10
2018-11-05T18:37:40.774Z,52.10
2018-11-05T18:40:09.479Z,52.10
2018-11-05T18:42:36.620Z,52.10
2018-11-05T18:45:03.743Z,52.10
2018-11-05T18:47:30.832Z,52.10
2018-11-05T18:49:57.999Z,52.00
2018-11-05T18:52:25.072Z,52.10
2018-11-05T18:54:52.187Z,52.10
2018-11-05T18:57:19.280Z,52.10
2018-11-05T18:59:46.399Z,52.10
2018-11-05T19:02:46.502Z,52.10
2018-11-05T19:05:13.547Z,52.10
2018-11-05T19:07:40.668Z,52.00
2018-11-05T19:10:07.764Z,52.00
2018-11-05T19:12:34.875Z,52.10
2018-11-05T19:15:02.036Z,52.10
2018-11-05T19:17:29.152Z,52.10
2018-11-05T19:19:56.264Z,52.10
2018-11-05T19:22:23.416Z,52.00
2018-11-05T19:24:50.486Z,52.10
2018-11-05T19:27:17.602Z,52.00
2018-11-05T19:29:44.718Z,52.00
2018-11-05T19:32:11.823Z,52.00
2018-11-05T19:34:38.917Z,52.00
2018-11-05T19:37:06.523Z,52.10
2018-11-05T19:39:33.612Z,52.00
2018-11-05T19:42:00.726Z,52.00
2018-11-05T19:44:27.762Z,52.00
2018-11-05T19:46:54.838Z,52.00
2018-11-05T19:49:21.945Z,52.00
2018-11-05T19:51:49.036Z,52.10
2018-11-05T19:54:16.139Z,52.00
2018-11-05T19:56:43.235Z,52.00
2018-11-05T19:59:10.307Z,52.10
2018-11-05T20:01:37.412Z,52.00
2018-11-05T20:04:04.814Z,52.00
2018-11-05T20:06:31.894Z,52.00
2018-11-05T20:08:58.993Z,52.00
2018-11-05T20:11:26.101Z,52.00
2018-11-05T20:13:53.555Z,52.00
2018-11-05T20:16:20.676Z,52.00
2018-11-05T20:18:47.991Z,52.00
2018-11-05T20:21:15.244Z,52.00
2018-11-05T20:23:42.339Z,52.00
2018-11-05T20:26:09.435Z,52.00
2018-11-05T20:28:36.562Z,52.00
2018-11-05T20:31:04.218Z,52.00
2018-11-05T20:33:31.379Z,52.00
2018-11-05T20:35:58.308Z,52.00
2018-11-05T20:38:25.383Z,52.00
2018-11-05T20:40:52.511Z,52.00
2018-11-05T20:43:19.642Z,51.90
2018-11-05T20:45:46.741Z,51.90
2018-11-05T20:48:13.803Z,51.90
2018-11-05T20:50:40.903Z,51.90
2018-11-05T20:53:07.991Z,51.90
2018-11-05T20:55:35.085Z,51.90
2018-11-05T20:58:02.205Z,51.90
2018-11-05T21:00:29.300Z,51.90
2018-11-05T21:02:56.368Z,51.90
2018-11-05T21:05:23.471Z,51.90
2018-11-05T21:07:50.543Z,51.90
2018-11-05T21:10:17.667Z,51.90
2018-11-05T21:12:44.775Z,51.90
2018-11-05T21:15:14.936Z,51.90
2018-11-05T21:17:42.482Z,51.90
2018-11-05T21:20:09.723Z,51.80
2018-11-05T21:22:36.943Z,51.80
2018-11-05T21:25:04.419Z,51.80
2018-11-05T21:27:31.539Z,51.80
2018-11-05T21:29:58.661Z,51.80
2018-11-05T21:32:25.734Z,51.80
2018-11-05T21:34:52.849Z,51.70
2018-11-05T21:37:19.930Z,51.80
2018-11-05T21:39:47.014Z,51.70
2018-11-05T21:42:14.109Z,51.70
2018-11-05T21:44:41.206Z,51.70
2018-11-05T21:47:08.320Z,51.70
2018-11-05T21:49:35.437Z,51.70
2018-11-05T21:52:02.522Z,51.70
2018-11-05T21:54:29.674Z,51.70
2018-11-05T21:56:56.754Z,51.70
2018-11-05T21:59:23.847Z,51.70
2018-11-05T22:01:50.956Z,51.60
2018-11-05T22:04:18.071Z,51.70
2018-11-05T22:06:45.130Z,51.60
2018-11-05T22:09:12.200Z,51.60
2018-11-05T22:11:39.271Z,51.60
2018-11-05T22:14:06.364Z,51.60
2018-11-05T22:16:33.460Z,51.60
2018-11-05T22:19:00.563Z,51.60
2018-11-05T22:21:27.684Z,51.60
2018-11-05T22:23:54.800Z,51.50
2018-11-05T22:26:21.899Z,51.60
2018-11-05T22:28:49.021Z,51.60
2018-11-05T22:31:16.104Z,51.50
2018-11-05T22:33:43.219Z,51.60
2018-11-05T22:36:10.489Z,51.50
2018-11-05T22:38:37.740Z,51.50
2018-11-05T22:41:05.559Z,51.50
2018-11-05T22:43:33.002Z,51.50
2018-11-05T22:46:00.104Z,51.40
2018-11-05T22:48:27.200Z,51.40
2018-11-05T22:50:54.294Z,51.40
2018-11-05T22:53:21.380Z,51.40
2018-11-05T22:55:48.494Z,51.40
2018-11-05T22:58:15.587Z,51.50
2018-11-05T23:00:48.372Z,51.40
2018-11-05T23:03:21.263Z,51.40
2018-11-05T23:05:48.363Z,51.40
2018-11-05T23:08:15.467Z,51.40
2018-11-05T23:10:43.247Z,51.40
2018-11-05T23:13:10.356Z,51.40
2018-11-05T23:15:37.463Z,51.40
2018-11-05T23:18:04.606Z,51.40
2018-11-05T23:20:31.714Z,51.40
2018-11-05T23:22:58.807Z,51.40
2018-11-05T23:25:25.947Z,51.40
2018-11-05T23:27:53.074Z,51.30
2018-11-05T23:30:20.192Z,51.40
2018-11-05T23:32:47.279Z,51.40
2018-11-05T23:35:14.398Z,51.30
2018-11-05T23:37:41.714Z,51.30
2018-11-05T23:40:08.979Z,51.30
2018-11-05T23:42:36.829Z,52.10
2018-11-05T23:45:05.799Z,51.30
2018-11-05T23:47:32.866Z,51.30
2018-11-05T23:49:59.948Z,51.30
2018-11-05T23:52:27.050Z,51.30
2018-11-05T23:54:54.130Z,51.30
2018-11-05T23:57:21.598Z,51.30
2018-11-05T23:59:48.668Z,51.20
